sensor_id;sensor_type;location;lat;lon;timestamp;P1;durP1;ratioP1;P2;durP2;ratioP2
34212;SDS011;20477;51.390;8.102;2024-02-15T00:02:04;0.93;;;0.73;;
34212;SDS011;20477;51.390;8.102;2024-02-15T00:04:31;1.00;;;0.77;;
34212;SDS011;20477;51.390;8.102;2024-02-15T00:06:58;2.83;;;0.60;;
34212;SDS011;20477;51.390;8.102;2024-02-15T00:09:26;3.35;;;0.80;;
34212;SDS011;20477;51.390;8.102;2024-02-15T00:11:53;1.23;;;0.98;;
34212;SDS011;20477;51.390;8.102;2024-02-15T00:14:22;1.08;;;0.75;;
34212;SDS011;20477;51.390;8.102;2024-02-15T00:16:49;0.80;;;0.80;;
34212;SDS011;20477;51.390;8.102;2024-02-15T00:19:17;5.72;;;0.70;;
34212;SDS011;20477;51.390;8.102;2024-02-15T00:21:44;1.38;;;0.75;;
34212;SDS011;20477;51.390;8.102;2024-02-15T00:24:12;1.48;;;0.70;;
34212;SDS011;20477;51.390;8.102;2024-02-15T00:26:41;3.78;;;0.98;;
34212;SDS011;20477;51.390;8.102;2024-02-15T00:29:08;1.35;;;0.70;;
34212;SDS011;20477;51.390;8.102;2024-02-15T00:31:37;1.30;;;0.90;;
34212;SDS011;20477;51.390;8.102;2024-02-15T00:34:05;0.98;;;0.82;;
34212;SDS011;20477;51.390;8.102;2024-02-15T00:36:33;1.20;;;0.85;;
34212;SDS011;20477;51.390;8.102;2024-02-15T00:39:00;1.52;;;0.77;;
34212;SDS011;20477;51.390;8.102;2024-02-15T00:41:27;0.93;;;0.73;;
34212;SDS011;20477;51.390;8.102;2024-02-15T00:43:55;1.00;;;0.90;;
34212;SDS011;20477;51.390;8.102;2024-02-15T00:46:22;1.05;;;0.75;;
34212;SDS011;20477;51.390;8.102;2024-02-15T00:48:51;1.05;;;0.60;;
34212;SDS011;20477;51.390;8.102;2024-02-15T00:51:18;0.80;;;0.80;;
34212;SDS011;20477;51.390;8.102;2024-02-15T00:53:46;1.42;;;0.80;;
34212;SDS011;20477;51.390;8.102;2024-02-15T00:56:13;0.80;;;0.60;;
34212;SDS011;20477;51.390;8.102;2024-02-15T00:58:40;1.25;;;0.68;;
34212;SDS011;20477;51.390;8.102;2024-02-15T01:01:08;1.48;;;0.95;;
34212;SDS011;20477;51.390;8.102;2024-02-15T01:03:35;0.80;;;0.60;;
34212;SDS011;20477;51.390;8.102;2024-02-15T01:06:04;0.70;;;0.70;;
34212;SDS011;20477;51.390;8.102;2024-02-15T01:08:31;1.27;;;0.70;;
34212;SDS011;20477;51.390;8.102;2024-02-15T01:10:59;2.53;;;0.85;;
34212;SDS011;20477;51.390;8.102;2024-02-15T01:13:26;1.33;;;1.20;;
34212;SDS011;20477;51.390;8.102;2024-02-15T01:15:53;0.93;;;0.90;;
34212;SDS011;20477;51.390;8.102;2024-02-15T01:18:21;0.68;;;0.68;;
34212;SDS011;20477;51.390;8.102;2024-02-15T01:20:48;1.30;;;0.80;;
34212;SDS011;20477;51.390;8.102;2024-02-15T01:23:17;2.50;;;1.20;;
34212;SDS011;20477;51.390;8.102;2024-02-15T01:25:45;1.20;;;0.93;;
34212;SDS011;20477;51.390;8.102;2024-02-15T01:28:12;1.17;;;1.08;;
34212;SDS011;20477;51.390;8.102;2024-02-15T01:30:39;2.05;;;1.02;;
34212;SDS011;20477;51.390;8.102;2024-02-15T01:33:07;1.17;;;1.08;;
34212;SDS011;20477;51.390;8.102;2024-02-15T01:35:34;2.55;;;1.00;;
34212;SDS011;20477;51.390;8.102;2024-02-15T01:38:02;2.42;;;1.20;;
34212;SDS011;20477;51.390;8.102;2024-02-15T01:40:31;1.45;;;1.00;;
34212;SDS011;20477;51.390;8.102;2024-02-15T01:42:58;2.10;;;1.20;;
34212;SDS011;20477;51.390;8.102;2024-02-15T01:45:25;2.00;;;1.17;;
34212;SDS011;20477;51.390;8.102;2024-02-15T01:47:53;1.23;;;0.90;;
34212;SDS011;20477;51.390;8.102;2024-02-15T01:50:20;0.80;;;0.80;;
34212;SDS011;20477;51.390;8.102;2024-02-15T01:52:48;1.17;;;0.95;;
34212;SDS011;20477;51.390;8.102;2024-02-15T01:55:16;1.40;;;0.90;;
34212;SDS011;20477;51.390;8.102;2024-02-15T01:57:46;2.47;;;1.00;;
34212;SDS011;20477;51.390;8.102;2024-02-15T02:00:14;1.25;;;1.05;;
34212;SDS011;20477;51.390;8.102;2024-02-15T02:02:42;1.90;;;0.82;;
34212;SDS011;20477;51.390;8.102;2024-02-15T02:05:11;2.35;;;1.00;;
34212;SDS011;20477;51.390;8.102;2024-02-15T02:07:38;1.67;;;0.93;;
34212;SDS011;20477;51.390;8.102;2024-02-15T02:10:06;1.95;;;1.00;;
34212;SDS011;20477;51.390;8.102;2024-02-15T02:12:34;2.10;;;0.90;;
34212;SDS011;20477;51.390;8.102;2024-02-15T02:15:03;0.80;;;0.75;;
34212;SDS011;20477;51.390;8.102;2024-02-15T02:17:30;1.00;;;0.90;;
34212;SDS011;20477;51.390;8.102;2024-02-15T02:19:58;1.73;;;0.93;;
34212;SDS011;20477;51.390;8.102;2024-02-15T02:22:25;3.33;;;0.90;;
34212;SDS011;20477;51.390;8.102;2024-02-15T02:25:04;0.95;;;0.80;;
34212;SDS011;20477;51.390;8.102;2024-02-15T02:27:32;1.48;;;1.00;;
34212;SDS011;20477;51.390;8.102;2024-02-15T02:29:59;1.92;;;0.90;;
34212;SDS011;20477;51.390;8.102;2024-02-15T02:32:27;1.10;;;1.00;;
34212;SDS011;20477;51.390;8.102;2024-02-15T02:34:56;1.20;;;0.95;;
34212;SDS011;20477;51.390;8.102;2024-02-15T02:37:23;0.70;;;0.70;;
34212;SDS011;20477;51.390;8.102;2024-02-15T02:39:50;0.80;;;0.80;;
34212;SDS011;20477;51.390;8.102;2024-02-15T02:42:19;3.33;;;0.95;;
34212;SDS011;20477;51.390;8.102;2024-02-15T02:44:47;1.15;;;1.05;;
34212;SDS011;20477;51.390;8.102;2024-02-15T02:47:14;1.20;;;0.93;;
34212;SDS011;20477;51.390;8.102;2024-02-15T02:49:41;5.47;;;1.00;;
34212;SDS011;20477;51.390;8.102;2024-02-15T02:52:09;1.25;;;0.98;;
34212;SDS011;20477;51.390;8.102;2024-02-15T02:54:36;2.80;;;1.17;;
34212;SDS011;20477;51.390;8.102;2024-02-15T02:57:04;1.25;;;1.15;;
34212;SDS011;20477;51.390;8.102;2024-02-15T02:59:33;3.33;;;1.23;;
34212;SDS011;20477;51.390;8.102;2024-02-15T03:02:01;3.28;;;1.80;;
34212;SDS011;20477;51.390;8.102;2024-02-15T03:04:28;1.92;;;1.38;;
34212;SDS011;20477;51.390;8.102;2024-02-15T03:06:56;3.15;;;1.75;;
34212;SDS011;20477;51.390;8.102;2024-02-15T03:09:23;2.38;;;1.90;;
34212;SDS011;20477;51.390;8.102;2024-02-15T03:11:51;3.60;;;2.08;;
34212;SDS011;20477;51.390;8.102;2024-02-15T03:14:18;4.93;;;1.83;;
34212;SDS011;20477;51.390;8.102;2024-02-15T03:16:47;2.75;;;2.00;;
34212;SDS011;20477;51.390;8.102;2024-02-15T03:19:14;3.03;;;2.00;;
34212;SDS011;20477;51.390;8.102;2024-02-15T03:21:42;5.30;;;2.20;;
34212;SDS011;20477;51.390;8.102;2024-02-15T03:24:09;2.50;;;2.00;;
34212;SDS011;20477;51.390;8.102;2024-02-15T03:26:36;2.30;;;2.00;;
34212;SDS011;20477;51.390;8.102;2024-02-15T03:29:04;7.47;;;2.30;;
34212;SDS011;20477;51.390;8.102;2024-02-15T03:31:31;2.10;;;1.90;;
34212;SDS011;20477;51.390;8.102;2024-02-15T03:34:00;4.72;;;2.20;;
34212;SDS011;20477;51.390;8.102;2024-02-15T03:36:28;3.03;;;2.00;;
34212;SDS011;20477;51.390;8.102;2024-02-15T03:38:55;3.40;;;2.30;;
34212;SDS011;20477;51.390;8.102;2024-02-15T03:41:23;3.65;;;2.38;;
34212;SDS011;20477;51.390;8.102;2024-02-15T03:43:50;2.83;;;2.10;;
34212;SDS011;20477;51.390;8.102;2024-02-15T03:46:17;2.50;;;2.10;;
34212;SDS011;20477;51.390;8.102;2024-02-15T03:48:45;3.67;;;2.72;;
34212;SDS011;20477;51.390;8.102;2024-02-15T03:51:17;2.95;;;2.40;;
34212;SDS011;20477;51.390;8.102;2024-02-15T03:53:44;5.25;;;2.65;;
34212;SDS011;20477;51.390;8.102;2024-02-15T03:56:12;3.08;;;2.33;;
34212;SDS011;20477;51.390;8.102;2024-02-15T03:58:39;2.90;;;2.28;;
34212;SDS011;20477;51.390;8.102;2024-02-15T04:01:06;2.63;;;2.10;;
34212;SDS011;20477;51.390;8.102;2024-02-15T04:03:34;4.32;;;2.20;;
34212;SDS011;20477;51.390;8.102;2024-02-15T04:06:01;4.18;;;2.70;;
34212;SDS011;20477;51.390;8.102;2024-02-15T04:08:30;3.08;;;2.30;;
34212;SDS011;20477;51.390;8.102;2024-02-15T04:10:57;2.92;;;2.00;;
34212;SDS011;20477;51.390;8.102;2024-02-15T04:13:25;3.33;;;2.60;;
34212;SDS011;20477;51.390;8.102;2024-02-15T04:15:52;4.05;;;2.53;;
34212;SDS011;20477;51.390;8.102;2024-02-15T04:18:19;3.25;;;2.50;;
34212;SDS011;20477;51.390;8.102;2024-02-15T04:20:47;4.80;;;2.60;;
34212;SDS011;20477;51.390;8.102;2024-02-15T04:23:14;6.00;;;2.55;;
34212;SDS011;20477;51.390;8.102;2024-02-15T04:25:43;3.30;;;2.90;;
34212;SDS011;20477;51.390;8.102;2024-02-15T04:28:10;7.57;;;4.13;;
34212;SDS011;20477;51.390;8.102;2024-02-15T04:30:37;5.22;;;3.90;;
34212;SDS011;20477;51.390;8.102;2024-02-15T04:33:05;8.93;;;4.05;;
34212;SDS011;20477;51.390;8.102;2024-02-15T04:35:32;8.52;;;4.05;;
34212;SDS011;20477;51.390;8.102;2024-02-15T04:38:00;7.07;;;3.90;;
34212;SDS011;20477;51.390;8.102;2024-02-15T04:40:27;8.07;;;4.60;;
34212;SDS011;20477;51.390;8.102;2024-02-15T04:42:56;9.02;;;4.43;;
34212;SDS011;20477;51.390;8.102;2024-02-15T04:45:23;9.13;;;4.55;;
34212;SDS011;20477;51.390;8.102;2024-02-15T04:47:50;6.28;;;4.63;;
34212;SDS011;20477;51.390;8.102;2024-02-15T04:50:18;6.97;;;4.82;;
34212;SDS011;20477;51.390;8.102;2024-02-15T04:52:45;12.35;;;5.68;;
34212;SDS011;20477;51.390;8.102;2024-02-15T04:55:12;8.13;;;5.40;;
34212;SDS011;20477;51.390;8.102;2024-02-15T04:57:40;10.15;;;5.95;;
34212;SDS011;20477;51.390;8.102;2024-02-15T05:00:09;10.95;;;5.53;;
34212;SDS011;20477;51.390;8.102;2024-02-15T05:02:37;10.93;;;5.30;;
34212;SDS011;20477;51.390;8.102;2024-02-15T05:05:04;9.15;;;5.63;;
34212;SDS011;20477;51.390;8.102;2024-02-15T05:07:32;9.38;;;5.47;;
34212;SDS011;20477;51.390;8.102;2024-02-15T05:09:59;12.15;;;7.40;;
34212;SDS011;20477;51.390;8.102;2024-02-15T05:12:26;13.10;;;7.28;;
34212;SDS011;20477;51.390;8.102;2024-02-15T05:14:54;10.38;;;6.45;;
34212;SDS011;20477;51.390;8.102;2024-02-15T05:17:22;7.75;;;5.70;;
34212;SDS011;20477;51.390;8.102;2024-02-15T05:19:49;9.38;;;4.60;;
34212;SDS011;20477;51.390;8.102;2024-02-15T05:22:17;11.35;;;5.15;;
34212;SDS011;20477;51.390;8.102;2024-02-15T05:24:44;6.60;;;4.30;;
34212;SDS011;20477;51.390;8.102;2024-02-15T05:27:11;9.40;;;4.90;;
34212;SDS011;20477;51.390;8.102;2024-02-15T05:29:39;9.00;;;4.88;;
34212;SDS011;20477;51.390;8.102;2024-02-15T05:32:06;9.10;;;5.20;;
34212;SDS011;20477;51.390;8.102;2024-02-15T05:34:35;6.82;;;4.50;;
34212;SDS011;20477;51.390;8.102;2024-02-15T05:37:02;7.47;;;4.82;;
34212;SDS011;20477;51.390;8.102;2024-02-15T05:39:30;11.82;;;4.93;;
34212;SDS011;20477;51.390;8.102;2024-02-15T05:41:57;10.55;;;4.75;;
34212;SDS011;20477;51.390;8.102;2024-02-15T05:44:24;10.05;;;5.10;;
34212;SDS011;20477;51.390;8.102;2024-02-15T05:46:52;10.95;;;4.93;;
34212;SDS011;20477;51.390;8.102;2024-02-15T05:49:19;13.48;;;5.10;;
34212;SDS011;20477;51.390;8.102;2024-02-15T05:51:48;6.28;;;4.15;;
34212;SDS011;20477;51.390;8.102;2024-02-15T05:54:15;11.85;;;5.10;;
34212;SDS011;20477;51.390;8.102;2024-02-15T05:56:42;7.97;;;4.53;;
34212;SDS011;20477;51.390;8.102;2024-02-15T05:59:10;12.43;;;5.00;;
34212;SDS011;20477;51.390;8.102;2024-02-15T06:01:37;20.80;;;13.80;;
34212;SDS011;20477;51.390;8.102;2024-02-15T06:04:04;8.60;;;4.78;;
34212;SDS011;20477;51.390;8.102;2024-02-15T06:06:32;9.82;;;5.18;;
34212;SDS011;20477;51.390;8.102;2024-02-15T06:09:00;9.63;;;5.20;;
34212;SDS011;20477;51.390;8.102;2024-02-15T06:11:28;7.90;;;4.32;;
34212;SDS011;20477;51.390;8.102;2024-02-15T06:13:55;8.40;;;3.90;;
34212;SDS011;20477;51.390;8.102;2024-02-15T06:16:22;9.68;;;4.35;;
34212;SDS011;20477;51.390;8.102;2024-02-15T06:18:50;10.52;;;4.40;;
34212;SDS011;20477;51.390;8.102;2024-02-15T06:21:17;7.40;;;4.57;;
34212;SDS011;20477;51.390;8.102;2024-02-15T06:23:44;10.23;;;4.05;;
34212;SDS011;20477;51.390;8.102;2024-02-15T06:26:13;6.38;;;3.25;;
34212;SDS011;20477;51.390;8.102;2024-02-15T06:28:40;9.48;;;3.78;;
34212;SDS011;20477;51.390;8.102;2024-02-15T06:31:08;9.65;;;3.15;;
34212;SDS011;20477;51.390;8.102;2024-02-15T06:33:35;14.52;;;3.65;;
34212;SDS011;20477;51.390;8.102;2024-02-15T06:36:06;7.47;;;3.75;;
34212;SDS011;20477;51.390;8.102;2024-02-15T06:38:34;10.65;;;6.65;;
34212;SDS011;20477;51.390;8.102;2024-02-15T06:41:01;9.07;;;5.00;;
34212;SDS011;20477;51.390;8.102;2024-02-15T06:43:30;13.60;;;4.53;;
34212;SDS011;20477;51.390;8.102;2024-02-15T06:45:57;10.00;;;3.85;;
34212;SDS011;20477;51.390;8.102;2024-02-15T06:48:24;9.75;;;3.22;;
34212;SDS011;20477;51.390;8.102;2024-02-15T06:50:52;11.18;;;3.85;;
34212;SDS011;20477;51.390;8.102;2024-02-15T06:53:19;8.85;;;3.20;;
34212;SDS011;20477;51.390;8.102;2024-02-15T06:55:46;6.93;;;3.58;;
34212;SDS011;20477;51.390;8.102;2024-02-15T06:58:14;8.38;;;3.60;;
34212;SDS011;20477;51.390;8.102;2024-02-15T07:00:42;11.13;;;3.55;;
34212;SDS011;20477;51.390;8.102;2024-02-15T07:03:10;8.38;;;3.28;;
34212;SDS011;20477;51.390;8.102;2024-02-15T07:05:37;8.00;;;3.40;;
34212;SDS011;20477;51.390;8.102;2024-02-15T07:08:05;11.73;;;3.47;;
34212;SDS011;20477;51.390;8.102;2024-02-15T07:10:33;6.93;;;2.85;;
34212;SDS011;20477;51.390;8.102;2024-02-15T07:13:00;9.38;;;3.50;;
34212;SDS011;20477;51.390;8.102;2024-02-15T07:15:27;10.63;;;3.88;;
34212;SDS011;20477;51.390;8.102;2024-02-15T07:17:56;6.07;;;2.70;;
34212;SDS011;20477;51.390;8.102;2024-02-15T07:20:23;7.70;;;3.10;;
34212;SDS011;20477;51.390;8.102;2024-02-15T07:22:50;6.97;;;2.95;;
34212;SDS011;20477;51.390;8.102;2024-02-15T07:25:18;10.85;;;3.92;;
34212;SDS011;20477;51.390;8.102;2024-02-15T07:27:45;9.63;;;4.15;;
34212;SDS011;20477;51.390;8.102;2024-02-15T07:30:13;8.75;;;3.88;;
34212;SDS011;20477;51.390;8.102;2024-02-15T07:32:40;7.32;;;4.28;;
34212;SDS011;20477;51.390;8.102;2024-02-15T07:35:09;13.93;;;4.03;;
34212;SDS011;20477;51.390;8.102;2024-02-15T07:37:36;12.13;;;4.70;;
34212;SDS011;20477;51.390;8.102;2024-02-15T07:40:04;6.68;;;3.97;;
34212;SDS011;20477;51.390;8.102;2024-02-15T07:42:32;9.18;;;4.22;;
34212;SDS011;20477;51.390;8.102;2024-02-15T07:44:59;12.65;;;3.53;;
34212;SDS011;20477;51.390;8.102;2024-02-15T07:47:26;19.00;;;5.10;;
34212;SDS011;20477;51.390;8.102;2024-02-15T07:49:56;13.25;;;4.15;;
34212;SDS011;20477;51.390;8.102;2024-02-15T07:52:25;16.40;;;3.80;;
34212;SDS011;20477;51.390;8.102;2024-02-15T07:54:52;14.18;;;4.32;;
34212;SDS011;20477;51.390;8.102;2024-02-15T07:57:19;18.02;;;4.70;;
34212;SDS011;20477;51.390;8.102;2024-02-15T07:59:47;13.10;;;4.97;;
34212;SDS011;20477;51.390;8.102;2024-02-15T08:02:14;12.85;;;5.78;;
34212;SDS011;20477;51.390;8.102;2024-02-15T08:04:42;13.98;;;4.80;;
34212;SDS011;20477;51.390;8.102;2024-02-15T08:07:09;11.57;;;5.25;;
34212;SDS011;20477;51.390;8.102;2024-02-15T08:09:38;8.20;;;3.70;;
34212;SDS011;20477;51.390;8.102;2024-02-15T08:12:09;14.32;;;3.90;;
34212;SDS011;20477;51.390;8.102;2024-02-15T08:14:36;11.82;;;3.92;;
34212;SDS011;20477;51.390;8.102;2024-02-15T08:17:03;11.13;;;3.80;;
34212;SDS011;20477;51.390;8.102;2024-02-15T08:19:30;7.47;;;3.45;;
34212;SDS011;20477;51.390;8.102;2024-02-15T08:22:02;12.27;;;4.28;;
34212;SDS011;20477;51.390;8.102;2024-02-15T08:24:30;12.35;;;4.45;;
34212;SDS011;20477;51.390;8.102;2024-02-15T08:26:59;9.90;;;4.50;;
34212;SDS011;20477;51.390;8.102;2024-02-15T08:29:26;13.90;;;4.05;;
34212;SDS011;20477;51.390;8.102;2024-02-15T08:31:54;9.85;;;4.07;;
34212;SDS011;20477;51.390;8.102;2024-02-15T08:34:21;9.05;;;3.92;;
34212;SDS011;20477;51.390;8.102;2024-02-15T08:36:48;6.88;;;3.08;;
34212;SDS011;20477;51.390;8.102;2024-02-15T08:39:16;7.60;;;3.10;;
34212;SDS011;20477;51.390;8.102;2024-02-15T08:41:43;8.40;;;3.80;;
34212;SDS011;20477;51.390;8.102;2024-02-15T08:44:12;9.32;;;3.10;;
34212;SDS011;20477;51.390;8.102;2024-02-15T08:46:39;10.07;;;3.60;;
34212;SDS011;20477;51.390;8.102;2024-02-15T08:49:06;6.72;;;3.25;;
34212;SDS011;20477;51.390;8.102;2024-02-15T08:51:34;8.05;;;2.50;;
34212;SDS011;20477;51.390;8.102;2024-02-15T08:54:01;16.02;;;3.40;;
34212;SDS011;20477;51.390;8.102;2024-02-15T08:56:28;11.77;;;3.30;;
34212;SDS011;20477;51.390;8.102;2024-02-15T08:58:56;7.70;;;2.63;;
34212;SDS011;20477;51.390;8.102;2024-02-15T09:01:27;11.30;;;2.58;;
34212;SDS011;20477;51.390;8.102;2024-02-15T09:03:55;12.57;;;3.00;;
34212;SDS011;20477;51.390;8.102;2024-02-15T09:06:22;13.10;;;3.10;;
34212;SDS011;20477;51.390;8.102;2024-02-15T09:08:50;9.75;;;3.13;;
34212;SDS011;20477;51.390;8.102;2024-02-15T09:11:17;6.88;;;2.80;;
34212;SDS011;20477;51.390;8.102;2024-02-15T09:13:44;6.47;;;3.28;;
34212;SDS011;20477;51.390;8.102;2024-02-15T09:16:11;9.32;;;2.10;;
34212;SDS011;20477;51.390;8.102;2024-02-15T09:18:40;8.48;;;2.20;;
34212;SDS011;20477;51.390;8.102;2024-02-15T09:21:08;11.18;;;3.22;;
34212;SDS011;20477;51.390;8.102;2024-02-15T09:23:35;13.45;;;2.75;;
34212;SDS011;20477;51.390;8.102;2024-02-15T09:26:02;10.07;;;2.63;;
34212;SDS011;20477;51.390;8.102;2024-02-15T09:28:30;6.55;;;3.03;;
34212;SDS011;20477;51.390;8.102;2024-02-15T09:30:57;12.00;;;2.42;;
34212;SDS011;20477;51.390;8.102;2024-02-15T09:33:24;6.40;;;2.53;;
34212;SDS011;20477;51.390;8.102;2024-02-15T09:35:53;10.30;;;2.75;;
34212;SDS011;20477;51.390;8.102;2024-02-15T09:38:21;4.88;;;1.90;;
34212;SDS011;20477;51.390;8.102;2024-02-15T09:40:48;7.68;;;2.30;;
34212;SDS011;20477;51.390;8.102;2024-02-15T09:43:16;8.45;;;2.67;;
34212;SDS011;20477;51.390;8.102;2024-02-15T09:45:43;9.10;;;2.45;;
34212;SDS011;20477;51.390;8.102;2024-02-15T09:48:10;5.50;;;2.00;;
34212;SDS011;20477;51.390;8.102;2024-02-15T09:50:39;11.50;;;2.40;;
34212;SDS011;20477;51.390;8.102;2024-02-15T09:53:07;5.20;;;2.10;;
34212;SDS011;20477;51.390;8.102;2024-02-15T09:55:35;12.25;;;2.30;;
34212;SDS011;20477;51.390;8.102;2024-02-15T09:58:03;8.07;;;2.00;;
34212;SDS011;20477;51.390;8.102;2024-02-15T10:00:31;6.15;;;2.05;;
34212;SDS011;20477;51.390;8.102;2024-02-15T10:02:58;5.55;;;1.90;;
34212;SDS011;20477;51.390;8.102;2024-02-15T10:05:27;9.82;;;2.08;;
34212;SDS011;20477;51.390;8.102;2024-02-15T10:07:54;8.48;;;2.38;;
34212;SDS011;20477;51.390;8.102;2024-02-15T10:10:24;10.07;;;2.70;;
34212;SDS011;20477;51.390;8.102;2024-02-15T10:12:52;7.00;;;2.58;;
34212;SDS011;20477;51.390;8.102;2024-02-15T10:15:30;6.72;;;1.90;;
34212;SDS011;20477;51.390;8.102;2024-02-15T10:17:59;5.38;;;1.73;;
34212;SDS011;20477;51.390;8.102;2024-02-15T10:20:27;4.22;;;1.92;;
34212;SDS011;20477;51.390;8.102;2024-02-15T10:23:08;5.25;;;1.98;;
34212;SDS011;20477;51.390;8.102;2024-02-15T10:25:37;5.95;;;1.75;;
34212;SDS011;20477;51.390;8.102;2024-02-15T10:28:06;4.47;;;1.50;;
34212;SDS011;20477;51.390;8.102;2024-02-15T10:30:34;3.78;;;1.63;;
34212;SDS011;20477;51.390;8.102;2024-02-15T10:33:01;4.03;;;2.08;;
34212;SDS011;20477;51.390;8.102;2024-02-15T10:35:29;9.25;;;1.92;;
34212;SDS011;20477;51.390;8.102;2024-02-15T10:38:04;7.13;;;1.65;;
34212;SDS011;20477;51.390;8.102;2024-02-15T10:40:32;6.45;;;1.30;;
34212;SDS011;20477;51.390;8.102;2024-02-15T10:43:00;5.43;;;1.20;;
34212;SDS011;20477;51.390;8.102;2024-02-15T10:45:30;11.25;;;1.73;;
34212;SDS011;20477;51.390;8.102;2024-02-15T10:47:57;10.73;;;2.78;;
34212;SDS011;20477;51.390;8.102;2024-02-15T10:50:25;9.07;;;1.85;;
34212;SDS011;20477;51.390;8.102;2024-02-15T10:52:54;4.85;;;1.80;;
34212;SDS011;20477;51.390;8.102;2024-02-15T10:55:22;5.00;;;1.80;;
34212;SDS011;20477;51.390;8.102;2024-02-15T10:57:51;5.90;;;1.33;;
34212;SDS011;20477;51.390;8.102;2024-02-15T11:00:20;7.32;;;2.47;;
34212;SDS011;20477;51.390;8.102;2024-02-15T11:02:50;6.32;;;1.95;;
34212;SDS011;20477;51.390;8.102;2024-02-15T11:05:21;10.60;;;2.45;;
34212;SDS011;20477;51.390;8.102;2024-02-15T11:07:49;7.95;;;1.63;;
34212;SDS011;20477;51.390;8.102;2024-02-15T11:10:16;7.72;;;2.83;;
34212;SDS011;20477;51.390;8.102;2024-02-15T11:12:44;8.18;;;2.20;;
34212;SDS011;20477;51.390;8.102;2024-02-15T11:17:59;4.55;;;2.22;;
34212;SDS011;20477;51.390;8.102;2024-02-15T11:20:45;12.75;;;2.03;;
34212;SDS011;20477;51.390;8.102;2024-02-15T11:23:12;12.77;;;2.75;;
34212;SDS011;20477;51.390;8.102;2024-02-15T11:26:00;5.97;;;2.42;;
34212;SDS011;20477;51.390;8.102;2024-02-15T11:28:34;11.55;;;1.80;;
34212;SDS011;20477;51.390;8.102;2024-02-15T11:31:03;7.30;;;2.17;;
34212;SDS011;20477;51.390;8.102;2024-02-15T11:33:32;10.80;;;1.75;;
34212;SDS011;20477;51.390;8.102;2024-02-15T11:36:03;7.63;;;1.67;;
34212;SDS011;20477;51.390;8.102;2024-02-15T11:38:30;3.78;;;1.40;;
34212;SDS011;20477;51.390;8.102;2024-02-15T11:41:01;7.10;;;1.70;;
34212;SDS011;20477;51.390;8.102;2024-02-15T11:46:29;8.60;;;2.47;;
34212;SDS011;20477;51.390;8.102;2024-02-15T11:48:58;11.20;;;2.22;;
34212;SDS011;20477;51.390;8.102;2024-02-15T11:51:26;9.20;;;2.00;;
34212;SDS011;20477;51.390;8.102;2024-02-15T11:54:01;7.95;;;2.13;;
34212;SDS011;20477;51.390;8.102;2024-02-15T11:56:28;12.95;;;2.10;;
34212;SDS011;20477;51.390;8.102;2024-02-15T11:59:02;5.50;;;1.65;;
34212;SDS011;20477;51.390;8.102;2024-02-15T12:01:29;6.15;;;1.50;;
34212;SDS011;20477;51.390;8.102;2024-02-15T12:03:59;6.05;;;2.03;;
34212;SDS011;20477;51.390;8.102;2024-02-15T12:06:33;4.47;;;1.33;;
34212;SDS011;20477;51.390;8.102;2024-02-15T12:09:00;3.97;;;1.67;;
34212;SDS011;20477;51.390;8.102;2024-02-15T12:11:27;3.15;;;1.58;;
34212;SDS011;20477;51.390;8.102;2024-02-15T12:13:55;6.78;;;1.92;;
34212;SDS011;20477;51.390;8.102;2024-02-15T12:16:22;7.80;;;1.90;;
34212;SDS011;20477;51.390;8.102;2024-02-15T12:18:49;11.77;;;1.77;;
34212;SDS011;20477;51.390;8.102;2024-02-15T12:21:19;6.50;;;1.50;;
34212;SDS011;20477;51.390;8.102;2024-02-15T12:23:47;5.53;;;1.88;;
34212;SDS011;20477;51.390;8.102;2024-02-15T12:26:18;6.65;;;1.70;;
34212;SDS011;20477;51.390;8.102;2024-02-15T12:28:49;5.43;;;1.52;;
34212;SDS011;20477;51.390;8.102;2024-02-15T12:31:17;3.90;;;1.30;;
34212;SDS011;20477;51.390;8.102;2024-02-15T12:33:44;5.85;;;1.52;;
34212;SDS011;20477;51.390;8.102;2024-02-15T12:36:11;4.35;;;1.73;;
34212;SDS011;20477;51.390;8.102;2024-02-15T12:38:40;8.52;;;1.73;;
34212;SDS011;20477;51.390;8.102;2024-02-15T12:41:17;5.82;;;1.48;;
34212;SDS011;20477;51.390;8.102;2024-02-15T12:43:44;5.97;;;1.90;;
34212;SDS011;20477;51.390;8.102;2024-02-15T12:46:11;7.15;;;2.10;;
34212;SDS011;20477;51.390;8.102;2024-02-15T12:48:39;5.22;;;1.70;;
34212;SDS011;20477;51.390;8.102;2024-02-15T12:51:12;4.93;;;1.80;;
34212;SDS011;20477;51.390;8.102;2024-02-15T12:53:41;3.67;;;1.50;;
34212;SDS011;20477;51.390;8.102;2024-02-15T12:56:09;3.65;;;1.60;;
34212;SDS011;20477;51.390;8.102;2024-02-15T12:58:36;10.00;;;1.92;;
34212;SDS011;20477;51.390;8.102;2024-02-15T13:01:03;4.13;;;1.92;;
34212;SDS011;20477;51.390;8.102;2024-02-15T13:03:31;3.92;;;1.85;;
34212;SDS011;20477;51.390;8.102;2024-02-15T13:05:58;5.80;;;1.50;;
34212;SDS011;20477;51.390;8.102;2024-02-15T13:08:25;6.47;;;1.95;;
34212;SDS011;20477;51.390;8.102;2024-02-15T13:10:54;6.28;;;2.00;;
34212;SDS011;20477;51.390;8.102;2024-02-15T13:13:21;5.60;;;1.55;;
34212;SDS011;20477;51.390;8.102;2024-02-15T13:15:49;4.18;;;1.52;;
34212;SDS011;20477;51.390;8.102;2024-02-15T13:18:18;4.78;;;1.73;;
34212;SDS011;20477;51.390;8.102;2024-02-15T13:20:46;4.50;;;1.45;;
34212;SDS011;20477;51.390;8.102;2024-02-15T13:23:13;3.90;;;1.10;;
34212;SDS011;20477;51.390;8.102;2024-02-15T13:25:42;3.40;;;1.27;;
34212;SDS011;20477;51.390;8.102;2024-02-15T13:28:11;10.38;;;2.03;;
34212;SDS011;20477;51.390;8.102;2024-02-15T13:30:39;7.07;;;1.88;;
34212;SDS011;20477;51.390;8.102;2024-02-15T13:33:06;4.35;;;1.50;;
34212;SDS011;20477;51.390;8.102;2024-02-15T13:35:33;3.85;;;1.30;;
34212;SDS011;20477;51.390;8.102;2024-02-15T13:38:01;5.97;;;1.63;;
34212;SDS011;20477;51.390;8.102;2024-02-15T13:40:28;4.80;;;1.52;;
34212;SDS011;20477;51.390;8.102;2024-02-15T13:42:56;8.63;;;1.60;;
34212;SDS011;20477;51.390;8.102;2024-02-15T13:45:27;5.05;;;1.35;;
34212;SDS011;20477;51.390;8.102;2024-02-15T13:47:55;4.95;;;1.33;;
34212;SDS011;20477;51.390;8.102;2024-02-15T13:50:23;5.90;;;1.50;;
34212;SDS011;20477;51.390;8.102;2024-02-15T13:52:51;5.70;;;1.58;;
34212;SDS011;20477;51.390;8.102;2024-02-15T13:55:18;6.63;;;1.67;;
34212;SDS011;20477;51.390;8.102;2024-02-15T13:57:46;2.22;;;1.25;;
34212;SDS011;20477;51.390;8.102;2024-02-15T14:00:14;3.00;;;1.17;;
34212;SDS011;20477;51.390;8.102;2024-02-15T14:02:43;11.20;;;1.83;;
34212;SDS011;20477;51.390;8.102;2024-02-15T14:05:10;4.80;;;1.38;;
34212;SDS011;20477;51.390;8.102;2024-02-15T14:07:38;5.82;;;1.20;;
34212;SDS011;20477;51.390;8.102;2024-02-15T14:10:05;5.20;;;1.83;;
34212;SDS011;20477;51.390;8.102;2024-02-15T14:12:33;4.35;;;1.70;;
34212;SDS011;20477;51.390;8.102;2024-02-15T14:15:00;5.57;;;1.90;;
34212;SDS011;20477;51.390;8.102;2024-02-15T14:17:28;6.90;;;1.52;;
34212;SDS011;20477;51.390;8.102;2024-02-15T14:19:57;2.53;;;1.17;;
34212;SDS011;20477;51.390;8.102;2024-02-15T14:22:24;3.58;;;1.10;;
34212;SDS011;20477;51.390;8.102;2024-02-15T14:24:51;4.93;;;1.42;;
34212;SDS011;20477;51.390;8.102;2024-02-15T14:27:18;5.95;;;1.52;;
34212;SDS011;20477;51.390;8.102;2024-02-15T14:29:46;6.78;;;1.63;;
34212;SDS011;20477;51.390;8.102;2024-02-15T14:32:13;7.07;;;1.85;;
34212;SDS011;20477;51.390;8.102;2024-02-15T14:34:40;7.38;;;1.75;;
34212;SDS011;20477;51.390;8.102;2024-02-15T14:37:09;6.88;;;1.85;;
34212;SDS011;20477;51.390;8.102;2024-02-15T14:39:36;7.60;;;2.13;;
34212;SDS011;20477;51.390;8.102;2024-02-15T14:42:04;4.88;;;1.98;;
34212;SDS011;20477;51.390;8.102;2024-02-15T14:44:44;5.63;;;1.98;;
34212;SDS011;20477;51.390;8.102;2024-02-15T14:47:11;6.63;;;2.38;;
34212;SDS011;20477;51.390;8.102;2024-02-15T14:49:38;8.68;;;2.92;;
34212;SDS011;20477;51.390;8.102;2024-02-15T14:52:06;3.78;;;2.10;;
34212;SDS011;20477;51.390;8.102;2024-02-15T14:54:34;6.97;;;2.60;;
34212;SDS011;20477;51.390;8.102;2024-02-15T14:57:02;5.50;;;1.98;;